sensor_id;sensor_type;location;lat;lon;timestamp;P1;durP1;ratioP1;P2;durP2;ratioP2
7076;SDS011;3579;48.956;9.154;2023-04-01T00:00:47;1.63;;;1.10;;
7076;SDS011;3579;48.956;9.154;2023-04-01T00:03:13;1.90;;;1.20;;
7076;SDS011;3579;48.956;9.154;2023-04-01T00:05:39;1.53;;;1.20;;
7076;SDS011;3579;48.956;9.154;2023-04-01T00:08:05;1.20;;;1.10;;
7076;SDS011;3579;48.956;9.154;2023-04-01T00:10:31;2.07;;;1.03;;
7076;SDS011;3579;48.956;9.154;2023-04-01T00:12:57;1.20;;;0.90;;
7076;SDS011;3579;48.956;9.154;2023-04-01T00:15:23;1.07;;;0.97;;
7076;SDS011;3579;48.956;9.154;2023-04-01T00:17:49;1.30;;;1.10;;
7076;SDS011;3579;48.956;9.154;2023-04-01T00:20:16;1.73;;;1.10;;
7076;SDS011;3579;48.956;9.154;2023-04-01T00:22:42;2.43;;;1.10;;
7076;SDS011;3579;48.956;9.154;2023-04-01T00:25:09;1.20;;;0.90;;
7076;SDS011;3579;48.956;9.154;2023-04-01T00:27:35;1.40;;;1.10;;
7076;SDS011;3579;48.956;9.154;2023-04-01T00:30:01;1.67;;;1.17;;
7076;SDS011;3579;48.956;9.154;2023-04-01T00:32:28;1.63;;;1.17;;
7076;SDS011;3579;48.956;9.154;2023-04-01T00:34:54;2.00;;;1.30;;
7076;SDS011;3579;48.956;9.154;2023-04-01T00:37:20;1.33;;;0.87;;
7076;SDS011;3579;48.956;9.154;2023-04-01T00:39:47;1.10;;;1.00;;
7076;SDS011;3579;48.956;9.154;2023-04-01T00:42:13;1.00;;;0.90;;
7076;SDS011;3579;48.956;9.154;2023-04-01T00:44:40;0.97;;;0.93;;
7076;SDS011;3579;48.956;9.154;2023-04-01T00:47:06;1.27;;;0.97;;
7076;SDS011;3579;48.956;9.154;2023-04-01T00:49:33;1.83;;;1.20;;
7076;SDS011;3579;48.956;9.154;2023-04-01T00:52:03;1.70;;;1.20;;
7076;SDS011;3579;48.956;9.154;2023-04-01T00:54:31;1.13;;;0.80;;
7076;SDS011;3579;48.956;9.154;2023-04-01T00:56:59;1.40;;;1.10;;
7076;SDS011;3579;48.956;9.154;2023-04-01T00:59:33;1.63;;;1.10;;
7076;SDS011;3579;48.956;9.154;2023-04-01T01:02:02;1.30;;;1.00;;
7076;SDS011;3579;48.956;9.154;2023-04-01T01:04:32;1.47;;;1.03;;
7076;SDS011;3579;48.956;9.154;2023-04-01T01:10:26;1.43;;;1.00;;
7076;SDS011;3579;48.956;9.154;2023-04-01T01:16:01;1.57;;;1.17;;
7076;SDS011;3579;48.956;9.154;2023-04-01T01:18:49;1.20;;;1.00;;
7076;SDS011;3579;48.956;9.154;2023-04-01T01:21:42;1.03;;;0.93;;
7076;SDS011;3579;48.956;9.154;2023-04-01T01:27:10;1.40;;;1.10;;
7076;SDS011;3579;48.956;9.154;2023-04-01T01:35:30;1.93;;;1.20;;
7076;SDS011;3579;48.956;9.154;2023-04-01T01:37:58;1.63;;;1.00;;
7076;SDS011;3579;48.956;9.154;2023-04-01T01:40:27;1.23;;;1.03;;
7076;SDS011;3579;48.956;9.154;2023-04-01T01:42:56;1.20;;;1.00;;
7076;SDS011;3579;48.956;9.154;2023-04-01T01:45:26;1.23;;;0.93;;
7076;SDS011;3579;48.956;9.154;2023-04-01T01:47:54;1.30;;;1.10;;
7076;SDS011;3579;48.956;9.154;2023-04-01T01:50:23;1.20;;;1.10;;
7076;SDS011;3579;48.956;9.154;2023-04-01T01:52:51;1.77;;;1.03;;
7076;SDS011;3579;48.956;9.154;2023-04-01T01:55:30;1.10;;;0.90;;
7076;SDS011;3579;48.956;9.154;2023-04-01T01:57:59;1.00;;;0.90;;
7076;SDS011;3579;48.956;9.154;2023-04-01T02:00:48;1.17;;;0.90;;
7076;SDS011;3579;48.956;9.154;2023-04-01T02:03:23;1.43;;;1.10;;
7076;SDS011;3579;48.956;9.154;2023-04-01T02:05:52;1.20;;;1.00;;
7076;SDS011;3579;48.956;9.154;2023-04-01T02:08:25;1.47;;;1.10;;
7076;SDS011;3579;48.956;9.154;2023-04-01T02:10:57;1.90;;;1.00;;
7076;SDS011;3579;48.956;9.154;2023-04-01T02:13:31;1.23;;;0.80;;
7076;SDS011;3579;48.956;9.154;2023-04-01T02:16:13;1.50;;;1.00;;
7076;SDS011;3579;48.956;9.154;2023-04-01T02:18:46;1.50;;;1.00;;
7076;SDS011;3579;48.956;9.154;2023-04-01T02:21:16;1.87;;;1.00;;
7076;SDS011;3579;48.956;9.154;2023-04-01T02:23:44;1.20;;;1.10;;
7076;SDS011;3579;48.956;9.154;2023-04-01T02:26:10;0.97;;;0.90;;
7076;SDS011;3579;48.956;9.154;2023-04-01T02:28:38;1.13;;;1.00;;
7076;SDS011;3579;48.956;9.154;2023-04-01T02:31:05;1.07;;;0.90;;
7076;SDS011;3579;48.956;9.154;2023-04-01T02:33:34;1.53;;;1.00;;
7076;SDS011;3579;48.956;9.154;2023-04-01T02:36:00;1.60;;;0.93;;
7076;SDS011;3579;48.956;9.154;2023-04-01T02:38:26;1.33;;;0.87;;
7076;SDS011;3579;48.956;9.154;2023-04-01T02:40:56;0.90;;;0.87;;
7076;SDS011;3579;48.956;9.154;2023-04-01T02:43:25;1.27;;;1.00;;
7076;SDS011;3579;48.956;9.154;2023-04-01T02:45:52;1.30;;;1.10;;
7076;SDS011;3579;48.956;9.154;2023-04-01T02:48:18;1.13;;;1.03;;
7076;SDS011;3579;48.956;9.154;2023-04-01T02:50:45;1.27;;;0.87;;
7076;SDS011;3579;48.956;9.154;2023-04-01T02:53:11;2.00;;;1.00;;
7076;SDS011;3579;48.956;9.154;2023-04-01T02:55:37;1.10;;;0.90;;
7076;SDS011;3579;48.956;9.154;2023-04-01T02:58:03;1.83;;;1.10;;
7076;SDS011;3579;48.956;9.154;2023-04-01T03:00:30;1.10;;;1.00;;
7076;SDS011;3579;48.956;9.154;2023-04-01T03:02:56;1.43;;;1.00;;
7076;SDS011;3579;48.956;9.154;2023-04-01T03:05:22;1.50;;;1.00;;
7076;SDS011;3579;48.956;9.154;2023-04-01T03:07:49;1.37;;;1.10;;
7076;SDS011;3579;48.956;9.154;2023-04-01T03:10:15;1.30;;;1.03;;
7076;SDS011;3579;48.956;9.154;2023-04-01T03:12:41;1.27;;;1.10;;
7076;SDS011;3579;48.956;9.154;2023-04-01T03:15:09;1.67;;;1.00;;
7076;SDS011;3579;48.956;9.154;2023-04-01T03:17:37;1.00;;;0.90;;
7076;SDS011;3579;48.956;9.154;2023-04-01T03:20:03;1.30;;;1.17;;
7076;SDS011;3579;48.956;9.154;2023-04-01T03:22:30;1.40;;;1.00;;
7076;SDS011;3579;48.956;9.154;2023-04-01T03:24:56;1.07;;;0.97;;
7076;SDS011;3579;48.956;9.154;2023-04-01T03:27:22;0.80;;;0.80;;
7076;SDS011;3579;48.956;9.154;2023-04-01T03:29:49;1.57;;;1.20;;
7076;SDS011;3579;48.956;9.154;2023-04-01T03:32:15;1.27;;;1.00;;
7076;SDS011;3579;48.956;9.154;2023-04-01T03:34:41;1.10;;;0.97;;
7076;SDS011;3579;48.956;9.154;2023-04-01T03:37:07;1.10;;;0.90;;
7076;SDS011;3579;48.956;9.154;2023-04-01T03:39:33;1.17;;;1.07;;
7076;SDS011;3579;48.956;9.154;2023-04-01T03:41:59;1.20;;;0.90;;
7076;SDS011;3579;48.956;9.154;2023-04-01T03:44:25;1.07;;;0.90;;
7076;SDS011;3579;48.956;9.154;2023-04-01T03:46:51;2.93;;;1.10;;
7076;SDS011;3579;48.956;9.154;2023-04-01T03:49:17;1.00;;;0.90;;
7076;SDS011;3579;48.956;9.154;2023-04-01T03:51:43;1.10;;;0.90;;
7076;SDS011;3579;48.956;9.154;2023-04-01T03:54:09;1.13;;;0.97;;
7076;SDS011;3579;48.956;9.154;2023-04-01T03:56:36;1.00;;;0.90;;
7076;SDS011;3579;48.956;9.154;2023-04-01T03:59:03;1.40;;;1.00;;
7076;SDS011;3579;48.956;9.154;2023-04-01T04:01:31;1.70;;;0.93;;
7076;SDS011;3579;48.956;9.154;2023-04-01T04:03:57;1.20;;;0.90;;
7076;SDS011;3579;48.956;9.154;2023-04-01T04:06:23;1.27;;;0.83;;
7076;SDS011;3579;48.956;9.154;2023-04-01T04:08:50;1.37;;;0.83;;
7076;SDS011;3579;48.956;9.154;2023-04-01T04:11:16;1.10;;;1.00;;
7076;SDS011;3579;48.956;9.154;2023-04-01T04:13:43;0.90;;;0.80;;
7076;SDS011;3579;48.956;9.154;2023-04-01T04:16:10;1.07;;;0.97;;
7076;SDS011;3579;48.956;9.154;2023-04-01T04:18:37;1.37;;;1.00;;
7076;SDS011;3579;48.956;9.154;2023-04-01T04:21:03;1.30;;;0.93;;
7076;SDS011;3579;48.956;9.154;2023-04-01T04:23:29;1.77;;;0.90;;
7076;SDS011;3579;48.956;9.154;2023-04-01T04:26:03;1.10;;;1.00;;
7076;SDS011;3579;48.956;9.154;2023-04-01T04:28:31;1.00;;;0.90;;
7076;SDS011;3579;48.956;9.154;2023-04-01T04:30:57;1.23;;;1.00;;
7076;SDS011;3579;48.956;9.154;2023-04-01T04:33:23;1.33;;;0.93;;
7076;SDS011;3579;48.956;9.154;2023-04-01T04:35:50;1.17;;;0.97;;
7076;SDS011;3579;48.956;9.154;2023-04-01T04:38:17;1.40;;;1.00;;
7076;SDS011;3579;48.956;9.154;2023-04-01T04:40:43;1.00;;;0.90;;
7076;SDS011;3579;48.956;9.154;2023-04-01T04:43:10;0.97;;;0.87;;
7076;SDS011;3579;48.956;9.154;2023-04-01T04:45:37;1.47;;;1.10;;
7076;SDS011;3579;48.956;9.154;2023-04-01T04:48:03;1.27;;;0.90;;
7076;SDS011;3579;48.956;9.154;2023-04-01T04:50:29;1.17;;;0.90;;
7076;SDS011;3579;48.956;9.154;2023-04-01T04:52:55;1.23;;;0.93;;
7076;SDS011;3579;48.956;9.154;2023-04-01T04:55:21;1.03;;;0.93;;
7076;SDS011;3579;48.956;9.154;2023-04-01T04:57:48;1.00;;;0.80;;
7076;SDS011;3579;48.956;9.154;2023-04-01T05:00:14;0.80;;;0.80;;
7076;SDS011;3579;48.956;9.154;2023-04-01T05:02:40;1.20;;;0.90;;
7076;SDS011;3579;48.956;9.154;2023-04-01T05:05:06;1.30;;;1.00;;
7076;SDS011;3579;48.956;9.154;2023-04-01T05:07:32;1.10;;;0.87;;
7076;SDS011;3579;48.956;9.154;2023-04-01T05:09:59;1.00;;;0.90;;
7076;SDS011;3579;48.956;9.154;2023-04-01T05:12:25;1.83;;;1.00;;
7076;SDS011;3579;48.956;9.154;2023-04-01T05:14:51;1.00;;;0.90;;
7076;SDS011;3579;48.956;9.154;2023-04-01T05:17:17;1.37;;;1.10;;
7076;SDS011;3579;48.956;9.154;2023-04-01T05:19:43;1.17;;;1.00;;
7076;SDS011;3579;48.956;9.154;2023-04-01T05:22:09;1.50;;;1.10;;
7076;SDS011;3579;48.956;9.154;2023-04-01T05:24:35;1.13;;;1.00;;
7076;SDS011;3579;48.956;9.154;2023-04-01T05:27:01;1.43;;;1.03;;
7076;SDS011;3579;48.956;9.154;2023-04-01T05:29:27;0.80;;;0.80;;
7076;SDS011;3579;48.956;9.154;2023-04-01T05:31:53;1.00;;;0.80;;
7076;SDS011;3579;48.956;9.154;2023-04-01T05:34:19;1.00;;;0.90;;
7076;SDS011;3579;48.956;9.154;2023-04-01T05:36:45;0.80;;;0.80;;
7076;SDS011;3579;48.956;9.154;2023-04-01T05:39:11;0.80;;;0.80;;
7076;SDS011;3579;48.956;9.154;2023-04-01T05:41:37;0.80;;;0.80;;
7076;SDS011;3579;48.956;9.154;2023-04-01T05:44:04;1.33;;;0.90;;
7076;SDS011;3579;48.956;9.154;2023-04-01T05:46:30;0.87;;;0.87;;
7076;SDS011;3579;48.956;9.154;2023-04-01T05:48:57;1.20;;;1.10;;
7076;SDS011;3579;48.956;9.154;2023-04-01T05:51:23;1.37;;;0.90;;
7076;SDS011;3579;48.956;9.154;2023-04-01T05:53:49;1.13;;;0.83;;
7076;SDS011;3579;48.956;9.154;2023-04-01T05:56:15;1.07;;;0.97;;
7076;SDS011;3579;48.956;9.154;2023-04-01T05:58:41;1.40;;;0.80;;
7076;SDS011;3579;48.956;9.154;2023-04-01T06:01:08;1.00;;;0.90;;
7076;SDS011;3579;48.956;9.154;2023-04-01T06:03:35;1.00;;;0.90;;
7076;SDS011;3579;48.956;9.154;2023-04-01T06:06:01;0.90;;;0.80;;
7076;SDS011;3579;48.956;9.154;2023-04-01T06:08:28;1.10;;;1.00;;
7076;SDS011;3579;48.956;9.154;2023-04-01T06:16:34;0.93;;;0.80;;
7076;SDS011;3579;48.956;9.154;2023-04-01T06:29:59;1.10;;;0.97;;
7076;SDS011;3579;48.956;9.154;2023-04-01T06:35:36;1.00;;;0.90;;
7076;SDS011;3579;48.956;9.154;2023-04-01T06:41:28;1.63;;;1.00;;
7076;SDS011;3579;48.956;9.154;2023-04-01T06:58:03;1.20;;;1.00;;
7076;SDS011;3579;48.956;9.154;2023-04-01T07:03:10;0.90;;;0.90;;
7076;SDS011;3579;48.956;9.154;2023-04-01T07:05:45;1.77;;;0.90;;
7076;SDS011;3579;48.956;9.154;2023-04-01T07:08:13;1.27;;;1.00;;
7076;SDS011;3579;48.956;9.154;2023-04-01T07:10:53;1.30;;;0.90;;
7076;SDS011;3579;48.956;9.154;2023-04-01T07:16:06;1.30;;;0.97;;
7076;SDS011;3579;48.956;9.154;2023-04-01T07:21:56;0.80;;;0.80;;
7076;SDS011;3579;48.956;9.154;2023-04-01T07:24:44;0.80;;;0.80;;
7076;SDS011;3579;48.956;9.154;2023-04-01T07:27:12;0.80;;;0.80;;
7076;SDS011;3579;48.956;9.154;2023-04-01T07:29:39;1.17;;;1.00;;
7076;SDS011;3579;48.956;9.154;2023-04-01T07:37:42;1.57;;;1.00;;
7076;SDS011;3579;48.956;9.154;2023-04-01T07:40:39;1.20;;;0.90;;
7076;SDS011;3579;48.956;9.154;2023-04-01T07:46:24;0.77;;;0.77;;
7076;SDS011;3579;48.956;9.154;2023-04-01T07:49:15;1.47;;;1.00;;
7076;SDS011;3579;48.956;9.154;2023-04-01T07:57:02;1.10;;;1.00;;
7076;SDS011;3579;48.956;9.154;2023-04-01T08:19:35;1.40;;;1.00;;
7076;SDS011;3579;48.956;9.154;2023-04-01T08:22:25;1.87;;;1.00;;
7076;SDS011;3579;48.956;9.154;2023-04-01T08:24:58;1.00;;;0.90;;
7076;SDS011;3579;48.956;9.154;2023-04-01T08:27:44;2.17;;;0.90;;
7076;SDS011;3579;48.956;9.154;2023-04-01T08:38:40;1.47;;;1.10;;
7076;SDS011;3579;48.956;9.154;2023-04-01T08:53:00;1.10;;;0.90;;
7076;SDS011;3579;48.956;9.154;2023-04-01T08:55:40;1.60;;;0.90;;
7076;SDS011;3579;48.956;9.154;2023-04-01T08:58:26;1.10;;;0.90;;
7076;SDS011;3579;48.956;9.154;2023-04-01T09:01:11;1.20;;;0.90;;
7076;SDS011;3579;48.956;9.154;2023-04-01T09:12:22;1.03;;;0.80;;
7076;SDS011;3579;48.956;9.154;2023-04-01T09:21:34;1.10;;;1.00;;
7076;SDS011;3579;48.956;9.154;2023-04-01T09:27:05;1.10;;;1.00;;
7076;SDS011;3579;48.956;9.154;2023-04-01T09:35:24;1.00;;;0.90;;
7076;SDS011;3579;48.956;9.154;2023-04-01T09:38:04;2.23;;;1.00;;
7076;SDS011;3579;48.956;9.154;2023-04-01T09:46:34;1.00;;;0.90;;
7076;SDS011;3579;48.956;9.154;2023-04-01T09:52:21;1.30;;;1.00;;
7076;SDS011;3579;48.956;9.154;2023-04-01T09:55:05;1.13;;;1.00;;
7076;SDS011;3579;48.956;9.154;2023-04-01T10:04:09;1.23;;;0.93;;
7076;SDS011;3579;48.956;9.154;2023-04-01T10:15:20;1.00;;;0.83;;
7076;SDS011;3579;48.956;9.154;2023-04-01T10:29:14;0.83;;;0.83;;
7076;SDS011;3579;48.956;9.154;2023-04-01T10:32:18;1.00;;;0.90;;
7076;SDS011;3579;48.956;9.154;2023-04-01T10:57:10;1.07;;;0.90;;
7076;SDS011;3579;48.956;9.154;2023-04-01T11:22:35;1.33;;;0.90;;
7076;SDS011;3579;48.956;9.154;2023-04-01T11:34:11;1.13;;;0.93;;
7076;SDS011;3579;48.956;9.154;2023-04-01T11:39:33;0.97;;;0.80;;
7076;SDS011;3579;48.956;9.154;2023-04-01T11:51:18;1.10;;;0.90;;
7076;SDS011;3579;48.956;9.154;2023-04-01T11:56:39;1.60;;;1.00;;
7076;SDS011;3579;48.956;9.154;2023-04-01T12:05:27;1.23;;;0.90;;
7076;SDS011;3579;48.956;9.154;2023-04-01T12:08:16;1.57;;;0.90;;
7076;SDS011;3579;48.956;9.154;2023-04-01T12:11:07;1.50;;;0.80;;
7076;SDS011;3579;48.956;9.154;2023-04-01T12:13:42;1.20;;;1.00;;
7076;SDS011;3579;48.956;9.154;2023-04-01T12:28:10;1.20;;;0.93;;
7076;SDS011;3579;48.956;9.154;2023-04-01T12:33:36;2.70;;;1.00;;
7076;SDS011;3579;48.956;9.154;2023-04-01T12:36:13;1.07;;;0.90;;
7076;SDS011;3579;48.956;9.154;2023-04-01T12:47:20;1.50;;;0.87;;
7076;SDS011;3579;48.956;9.154;2023-04-01T12:52:58;1.27;;;0.93;;
7076;SDS011;3579;48.956;9.154;2023-04-01T12:55:49;1.00;;;0.90;;
7076;SDS011;3579;48.956;9.154;2023-04-01T13:09:57;1.03;;;0.90;;
7076;SDS011;3579;48.956;9.154;2023-04-01T13:12:44;0.83;;;0.83;;
7076;SDS011;3579;48.956;9.154;2023-04-01T13:20:28;0.83;;;0.80;;
7076;SDS011;3579;48.956;9.154;2023-04-01T13:26:18;1.13;;;1.00;;
7076;SDS011;3579;48.956;9.154;2023-04-01T13:31:47;2.37;;;1.00;;
7076;SDS011;3579;48.956;9.154;2023-04-01T13:34:37;1.00;;;0.90;;
7076;SDS011;3579;48.956;9.154;2023-04-01T13:37:28;2.17;;;0.90;;
7076;SDS011;3579;48.956;9.154;2023-04-01T14:38:54;1.40;;;0.90;;
7076;SDS011;3579;48.956;9.154;2023-04-01T14:44:27;0.90;;;0.70;;
7076;SDS011;3579;48.956;9.154;2023-04-01T14:47:21;0.77;;;0.77;;
7076;SDS011;3579;48.956;9.154;2023-04-01T14:49:56;1.40;;;0.90;;
7076;SDS011;3579;48.956;9.154;2023-04-01T14:52:37;0.80;;;0.80;;
7076;SDS011;3579;48.956;9.154;2023-04-01T14:55:27;2.00;;;0.83;;
7076;SDS011;3579;48.956;9.154;2023-04-01T14:58:13;0.80;;;0.70;;
7076;SDS011;3579;48.956;9.154;2023-04-01T15:18:12;0.97;;;0.90;;
7076;SDS011;3579;48.956;9.154;2023-04-01T15:20:56;0.70;;;0.70;;
7076;SDS011;3579;48.956;9.154;2023-04-01T15:28:42;0.77;;;0.77;;
7076;SDS011;3579;48.956;9.154;2023-04-01T15:31:21;0.90;;;0.90;;
7076;SDS011;3579;48.956;9.154;2023-04-01T15:37:02;0.73;;;0.70;;
7076;SDS011;3579;48.956;9.154;2023-04-01T15:42:43;0.80;;;0.80;;
7076;SDS011;3579;48.956;9.154;2023-04-01T15:45:15;0.93;;;0.80;;
7076;SDS011;3579;48.956;9.154;2023-04-01T15:48:02;1.30;;;0.90;;
7076;SDS011;3579;48.956;9.154;2023-04-01T15:56:42;1.07;;;0.80;;
7076;SDS011;3579;48.956;9.154;2023-04-01T16:15:28;0.97;;;0.87;;
7076;SDS011;3579;48.956;9.154;2023-04-01T16:18:17;0.83;;;0.83;;
7076;SDS011;3579;48.956;9.154;2023-04-01T16:26:16;1.27;;;0.90;;
7076;SDS011;3579;48.956;9.154;2023-04-01T16:29:11;0.93;;;0.83;;
7076;SDS011;3579;48.956;9.154;2023-04-01T16:32:12;0.80;;;0.80;;
7076;SDS011;3579;48.956;9.154;2023-04-01T16:37:43;0.80;;;0.80;;
7076;SDS011;3579;48.956;9.154;2023-04-01T16:43:06;0.87;;;0.87;;
7076;SDS011;3579;48.956;9.154;2023-04-01T16:48:21;1.17;;;0.80;;
7076;SDS011;3579;48.956;9.154;2023-04-01T16:50:55;1.00;;;0.70;;
7076;SDS011;3579;48.956;9.154;2023-04-01T16:53:47;1.03;;;0.80;;
7076;SDS011;3579;48.956;9.154;2023-04-01T16:56:20;0.97;;;0.80;;
7076;SDS011;3579;48.956;9.154;2023-04-01T17:01:30;0.93;;;0.83;;
7076;SDS011;3579;48.956;9.154;2023-04-01T17:04:57;1.43;;;0.87;;
7076;SDS011;3579;48.956;9.154;2023-04-01T17:10:25;0.70;;;0.70;;
7076;SDS011;3579;48.956;9.154;2023-04-01T17:16:06;1.73;;;0.97;;
7076;SDS011;3579;48.956;9.154;2023-04-01T17:32:14;0.70;;;0.70;;
7076;SDS011;3579;48.956;9.154;2023-04-01T17:35:05;0.97;;;0.87;;
7076;SDS011;3579;48.956;9.154;2023-04-01T17:50:13;0.80;;;0.73;;
7076;SDS011;3579;48.956;9.154;2023-04-01T17:56:04;0.80;;;0.80;;
7076;SDS011;3579;48.956;9.154;2023-04-01T18:04:08;0.90;;;0.90;;
7076;SDS011;3579;48.956;9.154;2023-04-01T18:07:06;0.80;;;0.80;;
7076;SDS011;3579;48.956;9.154;2023-04-01T18:21:36;1.00;;;0.90;;
7076;SDS011;3579;48.956;9.154;2023-04-01T18:32:59;0.70;;;0.70;;
7076;SDS011;3579;48.956;9.154;2023-04-01T18:35:52;0.70;;;0.70;;
7076;SDS011;3579;48.956;9.154;2023-04-01T18:38:30;0.70;;;0.70;;
7076;SDS011;3579;48.956;9.154;2023-04-01T18:52:42;0.93;;;0.80;;
7076;SDS011;3579;48.956;9.154;2023-04-01T19:06:07;0.70;;;0.70;;
7076;SDS011;3579;48.956;9.154;2023-04-01T19:08:42;0.70;;;0.70;;
7076;SDS011;3579;48.956;9.154;2023-04-01T19:13:50;0.80;;;0.80;;
7076;SDS011;3579;48.956;9.154;2023-04-01T19:16:26;0.77;;;0.77;;
7076;SDS011;3579;48.956;9.154;2023-04-01T19:19:24;0.90;;;0.90;;
7076;SDS011;3579;48.956;9.154;2023-04-01T19:25:42;1.20;;;0.73;;
7076;SDS011;3579;48.956;9.154;2023-04-01T19:28:53;0.93;;;0.83;;
7076;SDS011;3579;48.956;9.154;2023-04-01T19:31:34;1.00;;;0.77;;
7076;SDS011;3579;48.956;9.154;2023-04-01T19:40:28;0.97;;;0.80;;
7076;SDS011;3579;48.956;9.154;2023-04-01T19:45:44;0.70;;;0.70;;
7076;SDS011;3579;48.956;9.154;2023-04-01T19:48:37;0.80;;;0.80;;
7076;SDS011;3579;48.956;9.154;2023-04-01T19:57:05;0.77;;;0.77;;
7076;SDS011;3579;48.956;9.154;2023-04-01T20:04:59;0.70;;;0.70;;
7076;SDS011;3579;48.956;9.154;2023-04-01T20:08:06;0.80;;;0.80;;
7076;SDS011;3579;48.956;9.154;2023-04-01T20:16:53;0.63;;;0.63;;
7076;SDS011;3579;48.956;9.154;2023-04-01T20:22:27;0.70;;;0.70;;
7076;SDS011;3579;48.956;9.154;2023-04-01T20:25:12;1.13;;;0.80;;
7076;SDS011;3579;48.956;9.154;2023-04-01T20:27:45;0.77;;;0.77;;
7076;SDS011;3579;48.956;9.154;2023-04-01T20:30:27;0.80;;;0.80;;
7076;SDS011;3579;48.956;9.154;2023-04-01T20:33:13;0.70;;;0.70;;
7076;SDS011;3579;48.956;9.154;2023-04-01T20:35:47;0.80;;;0.80;;
7076;SDS011;3579;48.956;9.154;2023-04-01T20:52:02;0.70;;;0.70;;
7076;SDS011;3579;48.956;9.154;2023-04-01T20:54:48;0.77;;;0.77;;
7076;SDS011;3579;48.956;9.154;2023-04-01T21:11:18;0.70;;;0.70;;
7076;SDS011;3579;48.956;9.154;2023-04-01T21:19:49;0.70;;;0.70;;
7076;SDS011;3579;48.956;9.154;2023-04-01T21:37:18;0.77;;;0.70;;
7076;SDS011;3579;48.956;9.154;2023-04-01T21:40:02;0.80;;;0.80;;
7076;SDS011;3579;48.956;9.154;2023-04-01T21:48:58;0.67;;;0.67;;
7076;SDS011;3579;48.956;9.154;2023-04-01T21:57:26;0.70;;;0.70;;
7076;SDS011;3579;48.956;9.154;2023-04-01T22:14:08;1.00;;;0.80;;
7076;SDS011;3579;48.956;9.154;2023-04-01T22:19:19;0.77;;;0.77;;
7076;SDS011;3579;48.956;9.154;2023-04-01T22:22:01;0.60;;;0.60;;
7076;SDS011;3579;48.956;9.154;2023-04-01T22:32:54;0.80;;;0.80;;
7076;SDS011;3579;48.956;9.154;2023-04-01T22:41:18;0.70;;;0.70;;
7076;SDS011;3579;48.956;9.154;2023-04-01T22:43:57;0.73;;;0.73;;
7076;SDS011;3579;48.956;9.154;2023-04-01T22:46:40;0.73;;;0.73;;
7076;SDS011;3579;48.956;9.154;2023-04-01T22:49:22;0.70;;;0.70;;
7076;SDS011;3579;48.956;9.154;2023-04-01T22:52:27;0.80;;;0.80;;
7076;SDS011;3579;48.956;9.154;2023-04-01T22:55:06;0.70;;;0.70;;
7076;SDS011;3579;48.956;9.154;2023-04-01T22:57:57;0.97;;;0.87;;
7076;SDS011;3579;48.956;9.154;2023-04-01T23:00:32;0.73;;;0.73;;
7076;SDS011;3579;48.956;9.154;2023-04-01T23:03:21;0.70;;;0.70;;
7076;SDS011;3579;48.956;9.154;2023-04-01T23:05:54;0.70;;;0.70;;
7076;SDS011;3579;48.956;9.154;2023-04-01T23:10:54;0.80;;;0.60;;
7076;SDS011;3579;48.956;9.154;2023-04-01T23:13:39;0.73;;;0.70;;
7076;SDS011;3579;48.956;9.154;2023-04-01T23:16:10;0.77;;;0.70;;
7076;SDS011;3579;48.956;9.154;2023-04-01T23:24:16;0.70;;;0.70;;
7076;SDS011;3579;48.956;9.154;2023-04-01T23:29:19;0.70;;;0.70;;
7076;SDS011;3579;48.956;9.154;2023-04-01T23:31:47;0.70;;;0.70;;
7076;SDS011;3579;48.956;9.154;2023-04-01T23:34:28;0.63;;;0.63;;
7076;SDS011;3579;48.956;9.154;2023-04-01T23:36:57;0.70;;;0.70;;
7076;SDS011;3579;48.956;9.154;2023-04-01T23:39:35;0.77;;;0.77;;
7076;SDS011;3579;48.956;9.154;2023-04-01T23:44:55;0.60;;;0.60;;
7076;SDS011;3579;48.956;9.154;2023-04-01T23:47:38;0.70;;;0.70;;
7076;SDS011;3579;48.956;9.154;2023-04-01T23:50:13;0.73;;;0.73;;
7076;SDS011;3579;48.956;9.154;2023-04-01T23:52:47;0.93;;;0.80;;
7076;SDS011;3579;48.956;9.154;2023-04-01T23:55:18;0.70;;;0.70;;
